sensor_id;sensor_type;location;lat;lon;timestamp;temperature;humidity
19292;DHT22;9779;51.756;7.450;2023-07-02T00:00:53;17.20;99.90
19292;DHT22;9779;51.756;7.450;2023-07-02T00:03:20;17.20;99.90
19292;DHT22;9779;51.756;7.450;2023-07-02T00:05:48;17.30;99.90
19292;DHT22;9779;51.756;7.450;2023-07-02T00:08:16;17.20;99.90
19292;DHT22;9779;51.756;7.450;2023-07-02T00:10:43;17.20;99.90
19292;DHT22;9779;51.756;7.450;2023-07-02T00:13:09;17.20;99.90
19292;DHT22;9779;51.756;7.450;2023-07-02T00:15:34;17.20;99.90
19292;DHT22;9779;51.756;7.450;2023-07-02T00:18:00;17.20;99.90
19292;DHT22;9779;51.756;7.450;2023-07-02T00:20:25;17.20;99.90
19292;DHT22;9779;51.756;7.450;2023-07-02T00:22:51;17.20;99.90
19292;DHT22;9779;51.756;7.450;2023-07-02T00:25:16;17.20;99.90
19292;DHT22;9779;51.756;7.450;2023-07-02T00:27:42;17.20;99.90
19292;DHT22;9779;51.756;7.450;2023-07-02T00:30:08;17.20;99.90
19292;DHT22;9779;51.756;7.450;2023-07-02T00:32:34;17.20;99.90
19292;DHT22;9779;51.756;7.450;2023-07-02T00:34:59;17.20;99.90
19292;DHT22;9779;51.756;7.450;2023-07-02T00:37:25;17.20;99.90
19292;DHT22;9779;51.756;7.450;2023-07-02T00:39:50;17.20;99.90
19292;DHT22;9779;51.756;7.450;2023-07-02T00:42:17;17.10;99.90
19292;DHT22;9779;51.756;7.450;2023-07-02T00:44:43;17.10;99.90
19292;DHT22;9779;51.756;7.450;2023-07-02T00:47:11;17.10;99.90
19292;DHT22;9779;51.756;7.450;2023-07-02T00:49:37;17.20;99.90
19292;DHT22;9779;51.756;7.450;2023-07-02T00:52:05;17.10;99.90
19292;DHT22;9779;51.756;7.450;2023-07-02T00:54:31;17.00;99.90
19292;DHT22;9779;51.756;7.450;2023-07-02T00:56:57;17.10;99.90
19292;DHT22;9779;51.756;7.450;2023-07-02T00:59:28;17.00;99.90
19292;DHT22;9779;51.756;7.450;2023-07-02T01:01:55;17.10;99.90
19292;DHT22;9779;51.756;7.450;2023-07-02T01:04:22;17.20;99.90
19292;DHT22;9779;51.756;7.450;2023-07-02T01:06:53;17.20;99.90
19292;DHT22;9779;51.756;7.450;2023-07-02T01:09:25;16.90;99.90
19292;DHT22;9779;51.756;7.450;2023-07-02T01:12:00;17.00;99.90
19292;DHT22;9779;51.756;7.450;2023-07-02T01:14:31;17.20;99.90
19292;DHT22;9779;51.756;7.450;2023-07-02T01:16:59;17.10;99.90
19292;DHT22;9779;51.756;7.450;2023-07-02T01:19:48;17.10;99.90
19292;DHT22;9779;51.756;7.450;2023-07-02T01:22:23;17.20;99.90
19292;DHT22;9779;51.756;7.450;2023-07-02T01:24:49;17.10;99.90
19292;DHT22;9779;51.756;7.450;2023-07-02T01:27:16;17.00;99.90
19292;DHT22;9779;51.756;7.450;2023-07-02T01:29:42;17.00;99.90
19292;DHT22;9779;51.756;7.450;2023-07-02T01:32:10;16.90;99.90
19292;DHT22;9779;51.756;7.450;2023-07-02T01:34:36;17.00;99.90
19292;DHT22;9779;51.756;7.450;2023-07-02T01:37:03;16.90;99.90
19292;DHT22;9779;51.756;7.450;2023-07-02T01:39:29;16.80;99.90
19292;DHT22;9779;51.756;7.450;2023-07-02T01:42:07;16.90;99.90
19292;DHT22;9779;51.756;7.450;2023-07-02T01:44:33;16.90;99.90
19292;DHT22;9779;51.756;7.450;2023-07-02T01:46:59;16.90;99.90
19292;DHT22;9779;51.756;7.450;2023-07-02T01:49:25;16.90;99.90
19292;DHT22;9779;51.756;7.450;2023-07-02T01:51:51;17.00;99.90
19292;DHT22;9779;51.756;7.450;2023-07-02T01:54:21;17.00;99.90
19292;DHT22;9779;51.756;7.450;2023-07-02T01:56:48;17.00;99.90
19292;DHT22;9779;51.756;7.450;2023-07-02T01:59:14;17.00;99.90
19292;DHT22;9779;51.756;7.450;2023-07-02T02:01:40;17.00;99.90
19292;DHT22;9779;51.756;7.450;2023-07-02T02:04:06;17.00;99.90
19292;DHT22;9779;51.756;7.450;2023-07-02T02:06:32;17.10;99.90
19292;DHT22;9779;51.756;7.450;2023-07-02T02:08:58;16.90;99.90
19292;DHT22;9779;51.756;7.450;2023-07-02T02:11:25;17.00;99.90
19292;DHT22;9779;51.756;7.450;2023-07-02T02:13:51;16.80;99.90
19292;DHT22;9779;51.756;7.450;2023-07-02T02:16:16;16.90;99.90
19292;DHT22;9779;51.756;7.450;2023-07-02T02:18:42;16.80;99.90
19292;DHT22;9779;51.756;7.450;2023-07-02T02:21:07;16.80;99.90
19292;DHT22;9779;51.756;7.450;2023-07-02T02:23:33;16.90;99.90
19292;DHT22;9779;51.756;7.450;2023-07-02T02:25:58;16.80;99.90
19292;DHT22;9779;51.756;7.450;2023-07-02T02:28:24;16.80;99.90
19292;DHT22;9779;51.756;7.450;2023-07-02T02:30:50;16.80;99.90
19292;DHT22;9779;51.756;7.450;2023-07-02T02:33:15;16.90;99.90
19292;DHT22;9779;51.756;7.450;2023-07-02T02:35:41;17.00;99.90
19292;DHT22;9779;51.756;7.450;2023-07-02T02:38:06;16.90;99.90
19292;DHT22;9779;51.756;7.450;2023-07-02T02:40:32;16.90;99.90
19292;DHT22;9779;51.756;7.450;2023-07-02T02:42:57;16.90;99.90
19292;DHT22;9779;51.756;7.450;2023-07-02T02:45:23;16.80;99.90
19292;DHT22;9779;51.756;7.450;2023-07-02T02:47:48;16.80;99.90
19292;DHT22;9779;51.756;7.450;2023-07-02T02:50:14;16.80;99.90
19292;DHT22;9779;51.756;7.450;2023-07-02T02:52:40;16.80;99.90
19292;DHT22;9779;51.756;7.450;2023-07-02T02:55:06;16.90;99.90
19292;DHT22;9779;51.756;7.450;2023-07-02T02:57:33;16.90;99.90
19292;DHT22;9779;51.756;7.450;2023-07-02T02:59:59;16.80;99.90
19292;DHT22;9779;51.756;7.450;2023-07-02T03:02:24;16.80;99.90
19292;DHT22;9779;51.756;7.450;2023-07-02T03:04:50;16.90;97.60
19292;DHT22;9779;51.756;7.450;2023-07-02T03:07:16;16.90;96.10
19292;DHT22;9779;51.756;7.450;2023-07-02T03:09:42;16.80;92.60
19292;DHT22;9779;51.756;7.450;2023-07-02T03:12:07;16.70;88.90
19292;DHT22;9779;51.756;7.450;2023-07-02T03:14:33;16.80;94.50
19292;DHT22;9779;51.756;7.450;2023-07-02T03:16:59;16.80;98.80
19292;DHT22;9779;51.756;7.450;2023-07-02T03:19:24;16.80;99.90
19292;DHT22;9779;51.756;7.450;2023-07-02T03:21:50;16.60;99.90
19292;DHT22;9779;51.756;7.450;2023-07-02T03:24:17;16.60;99.90
19292;DHT22;9779;51.756;7.450;2023-07-02T03:26:43;16.60;99.90
19292;DHT22;9779;51.756;7.450;2023-07-02T03:29:09;16.60;99.90
19292;DHT22;9779;51.756;7.450;2023-07-02T03:31:35;16.60;99.90
19292;DHT22;9779;51.756;7.450;2023-07-02T03:34:06;16.50;99.90
19292;DHT22;9779;51.756;7.450;2023-07-02T03:36:32;16.40;99.90
19292;DHT22;9779;51.756;7.450;2023-07-02T03:38:58;16.40;99.90
19292;DHT22;9779;51.756;7.450;2023-07-02T03:41:23;16.40;99.90
19292;DHT22;9779;51.756;7.450;2023-07-02T03:43:49;16.40;99.90
19292;DHT22;9779;51.756;7.450;2023-07-02T03:46:14;16.40;99.90
19292;DHT22;9779;51.756;7.450;2023-07-02T03:48:40;16.40;99.90
19292;DHT22;9779;51.756;7.450;2023-07-02T03:51:06;16.40;99.90
19292;DHT22;9779;51.756;7.450;2023-07-02T03:53:32;16.40;99.90
19292;DHT22;9779;51.756;7.450;2023-07-02T03:55:57;16.40;99.90
19292;DHT22;9779;51.756;7.450;2023-07-02T03:58:23;16.30;99.90
19292;DHT22;9779;51.756;7.450;2023-07-02T04:00:48;16.30;99.90
19292;DHT22;9779;51.756;7.450;2023-07-02T04:03:17;16.30;99.90
19292;DHT22;9779;51.756;7.450;2023-07-02T04:05:43;16.30;99.90
19292;DHT22;9779;51.756;7.450;2023-07-02T04:08:10;16.30;91.90
19292;DHT22;9779;51.756;7.450;2023-07-02T04:10:36;16.20;96.30
19292;DHT22;9779;51.756;7.450;2023-07-02T04:13:01;16.30;99.90
19292;DHT22;9779;51.756;7.450;2023-07-02T04:15:27;16.20;99.90
19292;DHT22;9779;51.756;7.450;2023-07-02T04:17:52;16.30;35.50
19292;DHT22;9779;51.756;7.450;2023-07-02T04:20:19;16.20;4.60
19292;DHT22;9779;51.756;7.450;2023-07-02T04:22:45;16.20;1.00
19292;DHT22;9779;51.756;7.450;2023-07-02T04:25:15;16.20;1.00
19292;DHT22;9779;51.756;7.450;2023-07-02T04:27:41;16.20;1.00
19292;DHT22;9779;51.756;7.450;2023-07-02T04:30:08;16.20;1.00
19292;DHT22;9779;51.756;7.450;2023-07-02T04:32:35;16.20;1.00
19292;DHT22;9779;51.756;7.450;2023-07-02T04:35:01;16.20;1.00
19292;DHT22;9779;51.756;7.450;2023-07-02T04:37:27;16.20;1.00
19292;DHT22;9779;51.756;7.450;2023-07-02T04:39:54;16.20;1.00
19292;DHT22;9779;51.756;7.450;2023-07-02T04:42:19;16.10;1.00
19292;DHT22;9779;51.756;7.450;2023-07-02T04:44:45;16.10;1.00
19292;DHT22;9779;51.756;7.450;2023-07-02T04:47:10;16.10;1.00
19292;DHT22;9779;51.756;7.450;2023-07-02T04:49:37;16.20;1.00
19292;DHT22;9779;51.756;7.450;2023-07-02T04:52:03;16.20;1.00
19292;DHT22;9779;51.756;7.450;2023-07-02T04:54:28;16.20;1.00
19292;DHT22;9779;51.756;7.450;2023-07-02T04:56:54;16.20;1.00
19292;DHT22;9779;51.756;7.450;2023-07-02T04:59:21;16.10;1.00
19292;DHT22;9779;51.756;7.450;2023-07-02T05:01:46;16.20;1.00
19292;DHT22;9779;51.756;7.450;2023-07-02T05:04:12;16.20;1.00
19292;DHT22;9779;51.756;7.450;2023-07-02T05:06:37;16.10;1.00
19292;DHT22;9779;51.756;7.450;2023-07-02T05:09:03;16.20;1.00
19292;DHT22;9779;51.756;7.450;2023-07-02T05:11:29;16.20;1.00
19292;DHT22;9779;51.756;7.450;2023-07-02T05:13:55;16.20;1.00
19292;DHT22;9779;51.756;7.450;2023-07-02T05:16:20;16.20;1.00
19292;DHT22;9779;51.756;7.450;2023-07-02T05:18:46;16.20;1.00
19292;DHT22;9779;51.756;7.450;2023-07-02T05:21:11;16.20;1.00
19292;DHT22;9779;51.756;7.450;2023-07-02T05:23:37;16.20;1.00
19292;DHT22;9779;51.756;7.450;2023-07-02T05:26:03;16.20;1.00
19292;DHT22;9779;51.756;7.450;2023-07-02T05:28:29;16.20;99.90
19292;DHT22;9779;51.756;7.450;2023-07-02T05:30:54;16.20;1.00
19292;DHT22;9779;51.756;7.450;2023-07-02T05:33:20;16.20;1.00
19292;DHT22;9779;51.756;7.450;2023-07-02T05:35:47;16.20;99.90
19292;DHT22;9779;51.756;7.450;2023-07-02T05:38:13;16.30;99.90
19292;DHT22;9779;51.756;7.450;2023-07-02T05:40:39;16.30;99.90
19292;DHT22;9779;51.756;7.450;2023-07-02T05:43:04;16.30;99.90
19292;DHT22;9779;51.756;7.450;2023-07-02T05:45:30;16.30;99.90
19292;DHT22;9779;51.756;7.450;2023-07-02T05:47:55;16.20;99.90
19292;DHT22;9779;51.756;7.450;2023-07-02T05:50:21;16.20;99.90
19292;DHT22;9779;51.756;7.450;2023-07-02T05:52:46;16.20;99.90
19292;DHT22;9779;51.756;7.450;2023-07-02T05:55:12;16.30;99.90
19292;DHT22;9779;51.756;7.450;2023-07-02T05:57:38;16.20;99.90
19292;DHT22;9779;51.756;7.450;2023-07-02T06:00:07;16.20;99.90
19292;DHT22;9779;51.756;7.450;2023-07-02T06:02:32;16.30;99.90
19292;DHT22;9779;51.756;7.450;2023-07-02T06:04:58;16.30;99.90
19292;DHT22;9779;51.756;7.450;2023-07-02T06:07:27;16.30;1.00
19292;DHT22;9779;51.756;7.450;2023-07-02T06:09:53;16.40;1.00
19292;DHT22;9779;51.756;7.450;2023-07-02T06:12:19;16.40;1.00
19292;DHT22;9779;51.756;7.450;2023-07-02T06:14:46;16.50;1.00
19292;DHT22;9779;51.756;7.450;2023-07-02T06:17:11;16.50;1.00
19292;DHT22;9779;51.756;7.450;2023-07-02T06:19:37;16.50;1.00
19292;DHT22;9779;51.756;7.450;2023-07-02T06:22:03;16.50;1.00
19292;DHT22;9779;51.756;7.450;2023-07-02T06:24:29;16.50;1.00
19292;DHT22;9779;51.756;7.450;2023-07-02T06:26:54;16.50;1.00
19292;DHT22;9779;51.756;7.450;2023-07-02T06:29:22;16.60;1.00
19292;DHT22;9779;51.756;7.450;2023-07-02T06:31:47;16.60;99.90
19292;DHT22;9779;51.756;7.450;2023-07-02T06:34:13;16.60;1.00
19292;DHT22;9779;51.756;7.450;2023-07-02T06:36:39;16.70;99.90
19292;DHT22;9779;51.756;7.450;2023-07-02T06:39:05;16.70;99.90
19292;DHT22;9779;51.756;7.450;2023-07-02T06:41:30;16.80;99.90
19292;DHT22;9779;51.756;7.450;2023-07-02T06:43:56;16.90;99.90
19292;DHT22;9779;51.756;7.450;2023-07-02T06:46:21;16.90;1.00
19292;DHT22;9779;51.756;7.450;2023-07-02T06:48:47;17.00;1.00
19292;DHT22;9779;51.756;7.450;2023-07-02T06:51:13;17.10;99.90
19292;DHT22;9779;51.756;7.450;2023-07-02T06:53:41;17.20;99.90
19292;DHT22;9779;51.756;7.450;2023-07-02T06:56:08;17.20;99.90
19292;DHT22;9779;51.756;7.450;2023-07-02T06:58:34;17.30;92.70
19292;DHT22;9779;51.756;7.450;2023-07-02T07:01:00;17.30;1.00
19292;DHT22;9779;51.756;7.450;2023-07-02T07:03:26;17.30;1.00
19292;DHT22;9779;51.756;7.450;2023-07-02T07:05:51;17.30;1.00
19292;DHT22;9779;51.756;7.450;2023-07-02T07:08:17;17.30;1.00
19292;DHT22;9779;51.756;7.450;2023-07-02T07:10:42;17.40;1.00
19292;DHT22;9779;51.756;7.450;2023-07-02T07:13:10;17.40;1.00
19292;DHT22;9779;51.756;7.450;2023-07-02T07:15:36;17.40;1.00
19292;DHT22;9779;51.756;7.450;2023-07-02T07:18:02;17.40;1.00
19292;DHT22;9779;51.756;7.450;2023-07-02T07:20:28;17.50;99.90
19292;DHT22;9779;51.756;7.450;2023-07-02T07:22:53;17.60;1.00
19292;DHT22;9779;51.756;7.450;2023-07-02T07:25:19;17.60;1.00
19292;DHT22;9779;51.756;7.450;2023-07-02T07:27:44;17.60;99.90
19292;DHT22;9779;51.756;7.450;2023-07-02T07:30:10;17.70;1.00
19292;DHT22;9779;51.756;7.450;2023-07-02T07:32:36;17.70;99.90
19292;DHT22;9779;51.756;7.450;2023-07-02T07:35:02;17.70;99.90
19292;DHT22;9779;51.756;7.450;2023-07-02T07:37:27;17.80;70.00
19292;DHT22;9779;51.756;7.450;2023-07-02T07:39:53;17.80;1.00
19292;DHT22;9779;51.756;7.450;2023-07-02T07:42:19;18.00;99.90
19292;DHT22;9779;51.756;7.450;2023-07-02T07:44:47;17.90;1.00
19292;DHT22;9779;51.756;7.450;2023-07-02T07:47:13;17.90;1.00
19292;DHT22;9779;51.756;7.450;2023-07-02T07:49:38;18.00;12.60
19292;DHT22;9779;51.756;7.450;2023-07-02T07:52:04;18.00;1.00
19292;DHT22;9779;51.756;7.450;2023-07-02T07:54:32;18.10;1.00
19292;DHT22;9779;51.756;7.450;2023-07-02T07:56:58;18.20;1.00
19292;DHT22;9779;51.756;7.450;2023-07-02T07:59:23;18.20;99.90
19292;DHT22;9779;51.756;7.450;2023-07-02T08:01:49;18.30;1.00
19292;DHT22;9779;51.756;7.450;2023-07-02T08:04:15;18.20;1.00
19292;DHT22;9779;51.756;7.450;2023-07-02T08:06:40;18.20;99.90
19292;DHT22;9779;51.756;7.450;2023-07-02T08:09:06;18.30;99.90
19292;DHT22;9779;51.756;7.450;2023-07-02T08:11:31;18.20;99.90
19292;DHT22;9779;51.756;7.450;2023-07-02T08:13:57;18.40;1.00
19292;DHT22;9779;51.756;7.450;2023-07-02T08:16:23;18.40;1.00
19292;DHT22;9779;51.756;7.450;2023-07-02T08:18:48;18.20;1.00
19292;DHT22;9779;51.756;7.450;2023-07-02T08:21:14;18.40;1.00
19292;DHT22;9779;51.756;7.450;2023-07-02T08:23:41;18.40;99.90
19292;DHT22;9779;51.756;7.450;2023-07-02T08:26:07;18.50;99.90
19292;DHT22;9779;51.756;7.450;2023-07-02T08:28:32;18.40;1.00
19292;DHT22;9779;51.756;7.450;2023-07-02T08:30:58;18.50;1.00
19292;DHT22;9779;51.756;7.450;2023-07-02T08:33:24;18.70;1.00
19292;DHT22;9779;51.756;7.450;2023-07-02T08:35:50;18.70;99.90
19292;DHT22;9779;51.756;7.450;2023-07-02T08:38:15;18.70;99.90
19292;DHT22;9779;51.756;7.450;2023-07-02T08:40:41;18.80;99.90
19292;DHT22;9779;51.756;7.450;2023-07-02T08:43:06;18.80;1.00
19292;DHT22;9779;51.756;7.450;2023-07-02T08:45:32;18.80;1.00
19292;DHT22;9779;51.756;7.450;2023-07-02T08:47:58;18.80;99.90
19292;DHT22;9779;51.756;7.450;2023-07-02T08:50:24;18.70;1.00
19292;DHT22;9779;51.756;7.450;2023-07-02T08:52:50;18.80;99.90
19292;DHT22;9779;51.756;7.450;2023-07-02T08:55:16;18.70;1.00
19292;DHT22;9779;51.756;7.450;2023-07-02T08:57:51;18.90;1.00
19292;DHT22;9779;51.756;7.450;2023-07-02T09:00:17;18.90;1.00
19292;DHT22;9779;51.756;7.450;2023-07-02T09:02:43;19.00;1.00
19292;DHT22;9779;51.756;7.450;2023-07-02T09:05:10;18.90;1.00
19292;DHT22;9779;51.756;7.450;2023-07-02T09:07:56;18.90;99.90
19292;DHT22;9779;51.756;7.450;2023-07-02T09:10:29;19.10;99.90
19292;DHT22;9779;51.756;7.450;2023-07-02T09:13:08;19.20;28.10
19292;DHT22;9779;51.756;7.450;2023-07-02T09:15:36;19.20;1.00
19292;DHT22;9779;51.756;7.450;2023-07-02T09:18:02;19.30;6.90
19292;DHT22;9779;51.756;7.450;2023-07-02T09:20:34;19.30;1.00
19292;DHT22;9779;51.756;7.450;2023-07-02T09:22:59;19.20;21.00
19292;DHT22;9779;51.756;7.450;2023-07-02T09:25:39;19.40;1.00
19292;DHT22;9779;51.756;7.450;2023-07-02T09:28:16;19.50;1.00
19292;DHT22;9779;51.756;7.450;2023-07-02T09:31:08;19.60;1.00
19292;DHT22;9779;51.756;7.450;2023-07-02T09:33:34;19.50;99.90
19292;DHT22;9779;51.756;7.450;2023-07-02T09:36:00;19.60;1.00
19292;DHT22;9779;51.756;7.450;2023-07-02T09:38:25;19.70;1.00
19292;DHT22;9779;51.756;7.450;2023-07-02T09:40:52;20.00;1.00
19292;DHT22;9779;51.756;7.450;2023-07-02T09:43:19;20.10;99.90
19292;DHT22;9779;51.756;7.450;2023-07-02T09:45:46;19.90;99.90
19292;DHT22;9779;51.756;7.450;2023-07-02T09:48:13;19.80;99.90
19292;DHT22;9779;51.756;7.450;2023-07-02T09:50:42;20.00;99.90
19292;DHT22;9779;51.756;7.450;2023-07-02T09:53:07;20.00;99.90
19292;DHT22;9779;51.756;7.450;2023-07-02T09:55:33;19.90;99.90
19292;DHT22;9779;51.756;7.450;2023-07-02T09:57:59;19.90;99.90
19292;DHT22;9779;51.756;7.450;2023-07-02T10:00:24;20.00;99.90
19292;DHT22;9779;51.756;7.450;2023-07-02T10:02:50;19.90;99.90
19292;DHT22;9779;51.756;7.450;2023-07-02T10:05:32;19.90;99.90
19292;DHT22;9779;51.756;7.450;2023-07-02T10:07:58;19.90;99.90
19292;DHT22;9779;51.756;7.450;2023-07-02T10:10:31;19.80;99.90
19292;DHT22;9779;51.756;7.450;2023-07-02T10:12:57;19.70;99.90
19292;DHT22;9779;51.756;7.450;2023-07-02T10:15:27;19.70;99.90
19292;DHT22;9779;51.756;7.450;2023-07-02T10:17:58;19.80;99.90
19292;DHT22;9779;51.756;7.450;2023-07-02T10:20:38;20.00;99.90
19292;DHT22;9779;51.756;7.450;2023-07-02T10:23:05;20.00;99.90
19292;DHT22;9779;51.756;7.450;2023-07-02T10:25:33;19.90;99.90
19292;DHT22;9779;51.756;7.450;2023-07-02T10:28:00;20.00;99.90
19292;DHT22;9779;51.756;7.450;2023-07-02T10:30:38;20.10;99.90
19292;DHT22;9779;51.756;7.450;2023-07-02T10:33:21;20.10;99.90
19292;DHT22;9779;51.756;7.450;2023-07-02T10:35:49;20.30;99.90
19292;DHT22;9779;51.756;7.450;2023-07-02T10:38:20;20.40;99.90
19292;DHT22;9779;51.756;7.450;2023-07-02T10:40:46;20.30;99.90
19292;DHT22;9779;51.756;7.450;2023-07-02T10:43:12;20.40;99.90
19292;DHT22;9779;51.756;7.450;2023-07-02T10:45:38;20.50;99.90
19292;DHT22;9779;51.756;7.450;2023-07-02T10:48:04;20.60;99.90
19292;DHT22;9779;51.756;7.450;2023-07-02T10:50:34;20.90;99.90
19292;DHT22;9779;51.756;7.450;2023-07-02T10:53:00;21.10;91.70
19292;DHT22;9779;51.756;7.450;2023-07-02T10:55:26;21.10;35.80
19292;DHT22;9779;51.756;7.450;2023-07-02T10:58:04;21.30;24.90
19292;DHT22;9779;51.756;7.450;2023-07-02T11:00:30;21.30;14.00
19292;DHT22;9779;51.756;7.450;2023-07-02T11:02:56;21.40;1.00
19292;DHT22;9779;51.756;7.450;2023-07-02T11:05:22;21.60;6.30
19292;DHT22;9779;51.756;7.450;2023-07-02T11:07:48;21.40;99.90
19292;DHT22;9779;51.756;7.450;2023-07-02T11:10:20;21.40;1.00
19292;DHT22;9779;51.756;7.450;2023-07-02T11:12:46;21.60;1.00
19292;DHT22;9779;51.756;7.450;2023-07-02T11:15:13;22.00;1.00
19292;DHT22;9779;51.756;7.450;2023-07-02T11:17:39;21.90;1.00
19292;DHT22;9779;51.756;7.450;2023-07-02T11:59:16;23.10;99.90
19292;DHT22;9779;51.756;7.450;2023-07-02T12:01:41;23.00;99.90
19292;DHT22;9779;51.756;7.450;2023-07-02T12:04:10;22.70;99.90
19292;DHT22;9779;51.756;7.450;2023-07-02T12:06:37;22.70;99.90
19292;DHT22;9779;51.756;7.450;2023-07-02T12:09:03;22.50;99.90
19292;DHT22;9779;51.756;7.450;2023-07-02T12:11:28;23.00;99.90
19292;DHT22;9779;51.756;7.450;2023-07-02T12:13:54;22.60;99.90
19292;DHT22;9779;51.756;7.450;2023-07-02T12:16:19;22.90;99.90
19292;DHT22;9779;51.756;7.450;2023-07-02T12:18:45;23.00;99.90
19292;DHT22;9779;51.756;7.450;2023-07-02T12:21:10;23.30;99.90
19292;DHT22;9779;51.756;7.450;2023-07-02T12:26:02;23.50;1.00
19292;DHT22;9779;51.756;7.450;2023-07-02T12:28:27;24.00;1.00
19292;DHT22;9779;51.756;7.450;2023-07-02T12:30:53;23.80;1.00
19292;DHT22;9779;51.756;7.450;2023-07-02T12:33:18;23.30;1.00
19292;DHT22;9779;51.756;7.450;2023-07-02T12:35:44;23.00;1.00
19292;DHT22;9779;51.756;7.450;2023-07-02T12:38:09;22.80;1.00
19292;DHT22;9779;51.756;7.450;2023-07-02T12:40:35;22.60;1.00
19292;DHT22;9779;51.756;7.450;2023-07-02T12:43:00;23.00;1.00
19292;DHT22;9779;51.756;7.450;2023-07-02T12:45:26;23.20;1.00
19292;DHT22;9779;51.756;7.450;2023-07-02T12:47:52;23.50;1.00
19292;DHT22;9779;51.756;7.450;2023-07-02T12:50:17;23.60;1.00
19292;DHT22;9779;51.756;7.450;2023-07-02T12:52:43;23.40;1.00
19292;DHT22;9779;51.756;7.450;2023-07-02T12:55:09;23.60;1.00
19292;DHT22;9779;51.756;7.450;2023-07-02T12:57:34;23.60;1.00
19292;DHT22;9779;51.756;7.450;2023-07-02T13:00:00;23.50;1.00
19292;DHT22;9779;51.756;7.450;2023-07-02T13:02:26;23.40;1.00
19292;DHT22;9779;51.756;7.450;2023-07-02T13:04:51;23.30;1.00
19292;DHT22;9779;51.756;7.450;2023-07-02T13:07:17;23.30;1.00
19292;DHT22;9779;51.756;7.450;2023-07-02T13:09:43;23.20;1.00
19292;DHT22;9779;51.756;7.450;2023-07-02T13:12:09;22.80;1.00
19292;DHT22;9779;51.756;7.450;2023-07-02T13:14:35;22.40;1.00
19292;DHT22;9779;51.756;7.450;2023-07-02T13:17:01;22.70;1.00
19292;DHT22;9779;51.756;7.450;2023-07-02T13:19:30;22.40;1.00
19292;DHT22;9779;51.756;7.450;2023-07-02T13:21:55;22.50;1.00
19292;DHT22;9779;51.756;7.450;2023-07-02T13:24:21;22.80;1.00
19292;DHT22;9779;51.756;7.450;2023-07-02T13:26:46;22.90;1.00
19292;DHT22;9779;51.756;7.450;2023-07-02T13:29:12;22.90;1.00
19292;DHT22;9779;51.756;7.450;2023-07-02T13:31:38;23.30;1.00
19292;DHT22;9779;51.756;7.450;2023-07-02T13:34:03;23.20;1.00
19292;DHT22;9779;51.756;7.450;2023-07-02T13:36:29;23.40;1.00
19292;DHT22;9779;51.756;7.450;2023-07-02T13:38:55;23.70;1.00
19292;DHT22;9779;51.756;7.450;2023-07-02T13:41:20;23.80;1.00
19292;DHT22;9779;51.756;7.450;2023-07-02T13:43:46;23.60;1.00
19292;DHT22;9779;51.756;7.450;2023-07-02T13:46:12;23.30;1.00
19292;DHT22;9779;51.756;7.450;2023-07-02T13:48:37;23.00;1.00
19292;DHT22;9779;51.756;7.450;2023-07-02T13:51:03;23.00;1.00
19292;DHT22;9779;51.756;7.450;2023-07-02T13:53:29;23.10;1.00
19292;DHT22;9779;51.756;7.450;2023-07-02T13:55:54;23.50;1.00
19292;DHT22;9779;51.756;7.450;2023-07-02T13:58:20;23.90;1.00
19292;DHT22;9779;51.756;7.450;2023-07-02T14:00:45;23.90;1.00
19292;DHT22;9779;51.756;7.450;2023-07-02T14:03:11;24.10;1.00
19292;DHT22;9779;51.756;7.450;2023-07-02T14:05:36;24.40;99.90
19292;DHT22;9779;51.756;7.450;2023-07-02T14:08:02;24.10;99.90
19292;DHT22;9779;51.756;7.450;2023-07-02T14:10:27;24.10;53.70
19292;DHT22;9779;51.756;7.450;2023-07-02T14:12:54;24.20;40.60
19292;DHT22;9779;51.756;7.450;2023-07-02T14:15:19;24.30;32.20
19292;DHT22;9779;51.756;7.450;2023-07-02T14:17:45;24.40;23.10
19292;DHT22;9779;51.756;7.450;2023-07-02T14:20:11;24.40;12.40
19292;DHT22;9779;51.756;7.450;2023-07-02T14:22:37;24.10;1.00
19292;DHT22;9779;51.756;7.450;2023-07-02T14:25:03;24.30;1.00
19292;DHT22;9779;51.756;7.450;2023-07-02T14:27:28;24.60;1.00
19292;DHT22;9779;51.756;7.450;2023-07-02T14:29:54;24.80;99.90
19292;DHT22;9779;51.756;7.450;2023-07-02T14:32:19;24.20;92.60
19292;DHT22;9779;51.756;7.450;2023-07-02T14:34:45;23.70;1.00
19292;DHT22;9779;51.756;7.450;2023-07-02T14:37:10;23.40;1.00
19292;DHT22;9779;51.756;7.450;2023-07-02T14:39:36;23.50;1.00
19292;DHT22;9779;51.756;7.450;2023-07-02T14:42:02;23.90;1.00
19292;DHT22;9779;51.756;7.450;2023-07-02T14:44:27;24.00;1.00
19292;DHT22;9779;51.756;7.450;2023-07-02T14:46:53;24.60;1.00
19292;DHT22;9779;51.756;7.450;2023-07-02T14:49:19;24.50;1.00
19292;DHT22;9779;51.756;7.450;2023-07-02T14:51:45;23.90;1.00
19292;DHT22;9779;51.756;7.450;2023-07-02T14:54:10;23.60;1.00
19292;DHT22;9779;51.756;7.450;2023-07-02T14:56:36;23.60;1.00
19292;DHT22;9779;51.756;7.450;2023-07-02T14:59:03;24.20;1.00
19292;DHT22;9779;51.756;7.450;2023-07-02T15:01:29;24.00;1.00
19292;DHT22;9779;51.756;7.450;2023-07-02T15:03:54;23.70;1.00
19292;DHT22;9779;51.756;7.450;2023-07-02T15:06:20;24.20;1.00
19292;DHT22;9779;51.756;7.450;2023-07-02T15:08:46;24.40;1.00
19292;DHT22;9779;51.756;7.450;2023-07-02T15:11:13;24.20;1.00
19292;DHT22;9779;51.756;7.450;2023-07-02T15:13:39;24.00;1.00
19292;DHT22;9779;51.756;7.450;2023-07-02T15:16:07;23.70;1.00
19292;DHT22;9779;51.756;7.450;2023-07-02T15:18:33;23.40;1.00
19292;DHT22;9779;51.756;7.450;2023-07-02T15:20:58;23.40;1.00
19292;DHT22;9779;51.756;7.450;2023-07-02T15:23:25;24.00;1.00
19292;DHT22;9779;51.756;7.450;2023-07-02T15:25:56;24.30;1.00
19292;DHT22;9779;51.756;7.450;2023-07-02T15:28:23;24.00;1.00
19292;DHT22;9779;51.756;7.450;2023-07-02T15:30:53;23.70;1.00
19292;DHT22;9779;51.756;7.450;2023-07-02T15:33:19;23.90;1.00
19292;DHT22;9779;51.756;7.450;2023-07-02T15:35:45;24.40;1.00
19292;DHT22;9779;51.756;7.450;2023-07-02T15:38:10;24.50;1.00
19292;DHT22;9779;51.756;7.450;2023-07-02T15:40:36;24.50;1.00
19292;DHT22;9779;51.756;7.450;2023-07-02T15:43:01;24.20;1.00
19292;DHT22;9779;51.756;7.450;2023-07-02T15:45:28;23.90;1.00
19292;DHT22;9779;51.756;7.450;2023-07-02T15:47:53;23.70;1.00
19292;DHT22;9779;51.756;7.450;2023-07-02T15:50:19;24.00;1.00
19292;DHT22;9779;51.756;7.450;2023-07-02T15:52:44;23.50;1.00
19292;DHT22;9779;51.756;7.450;2023-07-02T15:55:10;23.30;1.00
19292;DHT22;9779;51.756;7.450;2023-07-02T15:57:36;23.10;1.00
19292;DHT22;9779;51.756;7.450;2023-07-02T16:00:02;23.00;1.00
19292;DHT22;9779;51.756;7.450;2023-07-02T16:02:27;23.40;1.00
19292;DHT22;9779;51.756;7.450;2023-07-02T16:04:53;23.50;1.00
19292;DHT22;9779;51.756;7.450;2023-07-02T16:07:18;23.30;1.00
19292;DHT22;9779;51.756;7.450;2023-07-02T16:09:44;23.30;1.00
19292;DHT22;9779;51.756;7.450;2023-07-02T16:12:10;23.20;1.00
19292;DHT22;9779;51.756;7.450;2023-07-02T16:14:36;23.20;1.00
19292;DHT22;9779;51.756;7.450;2023-07-02T16:17:03;23.20;1.00
19292;DHT22;9779;51.756;7.450;2023-07-02T16:19:29;23.10;1.00
19292;DHT22;9779;51.756;7.450;2023-07-02T16:21:54;23.20;1.00
19292;DHT22;9779;51.756;7.450;2023-07-02T16:26:46;23.50;1.00
19292;DHT22;9779;51.756;7.450;2023-07-02T16:29:13;23.40;1.00
19292;DHT22;9779;51.756;7.450;2023-07-02T16:31:43;23.40;1.00